Terminal Aerodrome Forecast
Issued by NWS Twin Cities, MN

Home | Current Version | Previous Version | Graphics & Text | Print | Product List | Glossary On
Versions: 1 2 3 4 5 6 7 8 9 10 11 12 13 14 15 16 17 18 19 20 21 22 23 24 25 26 27
000
FTUS43 KMPX 230500
TAFMSP
TAF
KMSP 230534Z 2306/2412 16009KT P6SM -SHRA SCT020 OVC040
      TEMPO 2306/2310 4SM SHRA BR OVC020
     FM231000 18005KT 5SM BR BKN008 OVC015
     FM231400 24007KT P6SM SCT008 BKN015
     FM231700 25008KT P6SM FEW025
     FM240100 20005KT P6SM SKC=

USA.gov is the U.S. government's official web portal to all federal, state and local government web resources and services.